Time;durP1;ratioP1;P1;durP2;ratioP2;P2;SDS_P1;SDS_P2;PMS_P1;PMS_P2;Temp;Humidity;BMP_temperature;BMP_pressure;BME280_temperature;BME280_humidity;BME280_pressure;Samples;Min_cycle;Max_cycle;Signal;HPM_P1;HPM_P2
2021/10/26 00:01:07;;;;;;;40.03;10.00;;;;;;;;;;5032823;28;20041;-67
2021/10/26 00:03:33;;;;;;;32.35;7.20;;;;;;;;;;5031907;28;20494;-67
2021/10/26 00:05:59;;;;;;;28.05;8.80;;;;;;;;;;5032052;28;20607;-67
2021/10/26 00:08:25;;;;;;;37.15;9.13;;;;;;;;;;5030361;28;20104;-67
2021/10/26 00:10:51;;;;;;;29.50;8.90;;;;;;;;;;5031616;28;20048;-67
2021/10/26 00:13:17;;;;;;;29.17;9.35;;;;;;;;;;5031651;28;20452;-67
2021/10/26 00:15:43;;;;;;;25.48;8.38;;;;;;;;;;5030841;28;20068;-67
2021/10/26 00:18:09;;;;;;;28.08;8.13;;;;;;;;;;5031917;28;20454;-67
2021/10/26 00:20:35;;;;;;;25.27;8.25;;;;;;;;;;5030536;28;20095;-67
2021/10/26 00:23:01;;;;;;;29.60;8.40;;;;;;;;;;5023652;28;20444;-67
2021/10/26 00:25:27;;;;;;;27.92;9.07;;;;;;;;;;5032226;28;20112;-67
2021/10/26 00:27:54;;;;;;;21.17;8.93;;;;;;;;;;5032452;28;20033;-67
2021/10/26 00:30:20;;;;;;;26.92;8.32;;;;;;;;;;5031158;28;20032;-67
2021/10/26 00:32:46;;;;;;;25.85;8.95;;;;;;;;;;5031632;28;20025;-67
2021/10/26 00:35:12;;;;;;;31.00;10.00;;;;;;;;;;5031276;28;20068;-67
2021/10/26 00:37:38;;;;;;;31.85;10.80;;;;;;;;;;5032921;28;20493;-67
2021/10/26 00:40:05;;;;;;;36.63;8.82;;;;;;;;;;5027460;28;20064;-67
2021/10/26 00:42:32;;;;;;;33.50;9.15;;;;;;;;;;5032547;28;20025;-67
2021/10/26 00:44:58;;;;;;;31.73;9.55;;;;;;;;;;5030764;28;20029;-67
2021/10/26 00:47:24;;;;;;;27.60;8.57;;;;;;;;;;5032211;28;20041;-67
2021/10/26 00:49:50;;;;;;;38.83;9.05;;;;;;;;;;5031331;28;20026;-67
2021/10/26 00:52:16;;;;;;;29.33;9.13;;;;;;;;;;5030955;28;20044;-67
2021/10/26 00:54:43;;;;;;;28.83;8.80;;;;;;;;;;5032377;28;20036;-67
2021/10/26 00:57:09;;;;;;;30.80;8.85;;;;;;;;;;5031559;28;20032;-67
2021/10/26 00:59:35;;;;;;;30.95;9.27;;;;;;;;;;5029970;28;20080;-67
2021/10/26 01:02:01;;;;;;;31.63;8.48;;;;;;;;;;5031129;28;20025;-67
2021/10/26 01:04:28;;;;;;;29.63;9.77;;;;;;;;;;5031354;28;20060;-67
2021/10/26 01:06:56;;;;;;;36.95;10.27;;;;;;;;;;5032415;28;20034;-67
2021/10/26 01:09:22;;;;;;;29.85;9.90;;;;;;;;;;5029288;28;20030;-67
2021/10/26 01:11:48;;;;;;;21.80;8.20;;;;;;;;;;5022664;28;20037;-67
2021/10/26 01:14:15;;;;;;;27.00;10.27;;;;;;;;;;5032067;28;20519;-67
2021/10/26 01:16:42;;;;;;;32.33;9.10;;;;;;;;;;5031318;28;20110;-67
2021/10/26 01:19:08;;;;;;;27.60;9.48;;;;;;;;;;5025626;28;20017;-67
2021/10/26 01:21:34;;;;;;;44.45;11.10;;;;;;;;;;5030013;28;20516;-67
2021/10/26 01:24:00;;;;;;;32.15;10.93;;;;;;;;;;5031369;28;20037;-67
2021/10/26 01:26:26;;;;;;;23.58;9.40;;;;;;;;;;5031119;28;20108;-67
2021/10/26 01:28:53;;;;;;;33.08;11.15;;;;;;;;;;5029892;28;20021;-67
2021/10/26 01:31:19;;;;;;;35.58;10.13;;;;;;;;;;5029001;28;20033;-67
2021/10/26 01:33:45;;;;;;;30.10;9.95;;;;;;;;;;5030716;28;20028;-67
2021/10/26 01:36:13;;;;;;;24.05;8.38;;;;;;;;;;5031484;28;20052;-67
2021/10/26 01:38:39;;;;;;;28.52;9.00;;;;;;;;;;5028274;28;20112;-67
2021/10/26 01:41:06;;;;;;;31.80;8.90;;;;;;;;;;5026501;28;20045;-67
2021/10/26 01:43:32;;;;;;;19.00;7.65;;;;;;;;;;5030416;28;20029;-67
2021/10/26 01:45:58;;;;;;;31.35;9.43;;;;;;;;;;5029708;28;20040;-67
2021/10/26 01:48:26;;;;;;;28.92;8.90;;;;;;;;;;5029980;28;20101;-67
2021/10/26 01:50:53;;;;;;;24.85;8.13;;;;;;;;;;5029949;28;20588;-67
2021/10/26 01:53:19;;;;;;;30.05;8.27;;;;;;;;;;5026379;28;20033;-67
2021/10/26 01:55:45;;;;;;;27.52;9.00;;;;;;;;;;5029230;28;20026;-67
2021/10/26 01:58:11;;;;;;;42.20;9.63;;;;;;;;;;5030240;28;20018;-67
2021/10/26 02:00:38;;;;;;;28.70;8.02;;;;;;;;;;5030525;28;20029;-67
2021/10/26 02:03:05;;;;;;;29.77;8.52;;;;;;;;;;5030304;28;20021;-67
2021/10/26 02:05:31;;;;;;;28.88;9.70;;;;;;;;;;5026195;28;20037;-67
2021/10/26 02:07:57;;;;;;;30.25;8.98;;;;;;;;;;5030116;28;20529;-67
2021/10/26 02:10:23;;;;;;;29.52;9.32;;;;;;;;;;5034821;28;20052;-67
2021/10/26 02:12:50;;;;;;;26.75;10.07;;;;;;;;;;5032233;28;20033;-67
2021/10/26 02:15:17;;;;;;;29.95;9.75;;;;;;;;;;5028132;28;20026;-67
2021/10/26 02:17:43;;;;;;;29.20;8.73;;;;;;;;;;5029996;28;20026;-67
2021/10/26 02:20:11;;;;;;;25.52;10.18;;;;;;;;;;5028759;28;20026;-67
2021/10/26 02:22:37;;;;;;;34.90;10.27;;;;;;;;;;5030070;28;20013;-67
2021/10/26 02:25:03;;;;;;;24.42;9.20;;;;;;;;;;5043754;28;20072;-67
2021/10/26 02:27:29;;;;;;;19.85;8.57;;;;;;;;;;5029510;28;20079;-67
2021/10/26 02:29:55;;;;;;;24.13;8.52;;;;;;;;;;5028629;28;20731;-67
2021/10/26 02:32:21;;;;;;;30.48;9.65;;;;;;;;;;5025908;28;20026;-67
2021/10/26 02:34:47;;;;;;;30.15;9.77;;;;;;;;;;5016759;28;20040;-67
2021/10/26 02:37:14;;;;;;;25.83;9.50;;;;;;;;;;5024567;28;20161;-67
2021/10/26 02:39:40;;;;;;;30.23;9.82;;;;;;;;;;5027274;28;20025;-67
2021/10/26 02:42:06;;;;;;;24.20;8.75;;;;;;;;;;5029200;28;20025;-67
2021/10/26 02:44:32;;;;;;;33.42;9.85;;;;;;;;;;5030348;28;20060;-67
2021/10/26 02:46:59;;;;;;;21.85;9.13;;;;;;;;;;5030508;28;20117;-67
2021/10/26 02:49:25;;;;;;;25.27;10.30;;;;;;;;;;5028568;28;20493;-67
2021/10/26 02:51:51;;;;;;;32.97;9.90;;;;;;;;;;5029495;28;20029;-67
2021/10/26 02:54:17;;;;;;;26.25;10.77;;;;;;;;;;5028034;28;20026;-67
2021/10/26 02:56:43;;;;;;;37.08;11.15;;;;;;;;;;5029584;28;20409;-67
2021/10/26 02:59:09;;;;;;;40.15;11.52;;;;;;;;;;5028653;28;20021;-67
2021/10/26 03:01:35;;;;;;;30.67;12.00;;;;;;;;;;5029353;28;20517;-67
2021/10/26 03:04:01;;;;;;;33.10;10.45;;;;;;;;;;5027871;28;20020;-67
2021/10/26 03:06:27;;;;;;;26.17;10.48;;;;;;;;;;5025148;28;20104;-67
2021/10/26 03:08:53;;;;;;;31.48;12.15;;;;;;;;;;5028364;28;20033;-67
2021/10/26 03:11:19;;;;;;;25.17;12.88;;;;;;;;;;5028188;28;20042;-67
2021/10/26 03:13:45;;;;;;;28.40;10.95;;;;;;;;;;5019047;28;20033;-67
2021/10/26 03:16:11;;;;;;;29.67;11.45;;;;;;;;;;5029396;28;20034;-67
2021/10/26 03:18:37;;;;;;;33.08;11.38;;;;;;;;;;5029464;28;20018;-67
2021/10/26 03:21:04;;;;;;;27.17;11.77;;;;;;;;;;5020877;28;20403;-67
2021/10/26 03:23:30;;;;;;;32.72;11.05;;;;;;;;;;5028626;28;20087;-67
2021/10/26 03:25:56;;;;;;;31.23;12.05;;;;;;;;;;5028811;28;20048;-67
2021/10/26 03:28:22;;;;;;;32.20;12.75;;;;;;;;;;5027607;28;20084;-67
2021/10/26 03:30:49;;;;;;;34.03;11.63;;;;;;;;;;5029895;28;20057;-67
2021/10/26 03:33:15;;;;;;;29.38;10.60;;;;;;;;;;5028670;28;20025;-67
2021/10/26 03:35:41;;;;;;;28.55;12.35;;;;;;;;;;5029608;28;20041;-67
2021/10/26 03:38:07;;;;;;;32.53;12.23;;;;;;;;;;5030880;28;20595;-66
2021/10/26 03:40:33;;;;;;;25.85;10.80;;;;;;;;;;5021770;28;20026;-67
2021/10/26 03:42:59;;;;;;;29.85;10.18;;;;;;;;;;5027137;28;20482;-67
2021/10/26 03:45:25;;;;;;;34.58;10.25;;;;;;;;;;5030372;28;20386;-66
2021/10/26 03:47:51;;;;;;;26.40;9.73;;;;;;;;;;5028008;28;20025;-67
2021/10/26 03:50:17;;;;;;;31.65;10.48;;;;;;;;;;5031070;28;20037;-67
2021/10/26 03:52:44;;;;;;;25.55;9.77;;;;;;;;;;5031313;28;20025;-67
2021/10/26 03:55:11;;;;;;;28.05;9.10;;;;;;;;;;5032475;28;20409;-67
2021/10/26 03:57:37;;;;;;;28.05;9.60;;;;;;;;;;5029096;28;20049;-67
2021/10/26 04:00:04;;;;;;;26.42;11.13;;;;;;;;;;5031738;28;20025;-67
2021/10/26 04:02:31;;;;;;;28.48;9.40;;;;;;;;;;5031041;28;20554;-67
2021/10/26 04:05:05;;;;;;;25.50;9.35;;;;;;;;;;5047057;28;20033;-67
2021/10/26 04:07:32;;;;;;;27.08;9.70;;;;;;;;;;5028587;28;20112;-67
2021/10/26 04:10:05;;;;;;;30.23;10.48;;;;;;;;;;5031319;28;20049;-67
2021/10/26 04:12:31;;;;;;;27.80;10.80;;;;;;;;;;5028711;28;20033;-67
2021/10/26 04:14:58;;;;;;;28.42;10.23;;;;;;;;;;5031418;28;20029;-67
2021/10/26 04:17:25;;;;;;;28.67;10.88;;;;;;;;;;5031482;28;20164;-67
2021/10/26 04:19:57;;;;;;;32.03;10.60;;;;;;;;;;5031740;28;20052;-67
2021/10/26 04:22:23;;;;;;;32.55;12.80;;;;;;;;;;5027991;28;20021;-67
2021/10/26 04:24:49;;;;;;;26.85;10.50;;;;;;;;;;5030224;28;20033;-67
2021/10/26 04:27:16;;;;;;;24.30;10.68;;;;;;;;;;5032432;28;20044;-67
2021/10/26 04:29:42;;;;;;;28.15;10.57;;;;;;;;;;5028563;28;20064;-67
2021/10/26 04:32:10;;;;;;;32.67;11.07;;;;;;;;;;5030402;28;20030;-67
2021/10/26 04:34:36;;;;;;;32.83;12.50;;;;;;;;;;5030671;28;20079;-67
2021/10/26 04:37:02;;;;;;;27.13;11.05;;;;;;;;;;5023768;28;20021;-67
2021/10/26 04:39:28;;;;;;;30.65;11.70;;;;;;;;;;5030273;28;20504;-67
2021/10/26 04:41:54;;;;;;;29.98;10.88;;;;;;;;;;5028130;28;20532;-67
2021/10/26 04:44:21;;;;;;;29.45;11.63;;;;;;;;;;5031916;28;20494;-67
2021/10/26 04:46:47;;;;;;;29.73;11.18;;;;;;;;;;5030680;28;20030;-67
2021/10/26 04:49:13;;;;;;;29.38;11.60;;;;;;;;;;5030859;28;20044;-67
2021/10/26 04:51:39;;;;;;;21.85;11.13;;;;;;;;;;5025805;28;20038;-67
2021/10/26 04:54:05;;;;;;;34.67;11.07;;;;;;;;;;5026346;28;20104;-67
2021/10/26 04:56:31;;;;;;;25.02;11.88;;;;;;;;;;5030672;28;20025;-67
2021/10/26 04:58:57;;;;;;;24.17;11.32;;;;;;;;;;5031032;28;20490;-66
2021/10/26 05:01:23;;;;;;;27.60;11.23;;;;;;;;;;5031706;28;20052;-67
2021/10/26 05:03:49;;;;;;;30.55;13.90;;;;;;;;;;5030627;28;20032;-67
2021/10/26 05:06:15;;;;;;;32.40;13.23;;;;;;;;;;5030118;28;20029;-67
2021/10/26 05:08:41;;;;;;;28.65;12.63;;;;;;;;;;5026651;28;20116;-67
2021/10/26 05:11:07;;;;;;;31.73;11.60;;;;;;;;;;5034889;28;20049;-67
2021/10/26 05:13:34;;;;;;;28.40;11.80;;;;;;;;;;5030549;28;20033;-67
2021/10/26 05:16:02;;;;;;;32.50;11.10;;;;;;;;;;5031842;28;20024;-67
2021/10/26 05:18:30;;;;;;;30.42;10.07;;;;;;;;;;5028898;28;22059;-66
2021/10/26 05:20:57;;;;;;;32.50;11.40;;;;;;;;;;5031295;28;20164;-67
2021/10/26 05:23:24;;;;;;;25.67;11.02;;;;;;;;;;5029966;28;20022;-67
2021/10/26 05:25:52;;;;;;;28.17;10.57;;;;;;;;;;5028059;28;20037;-67
2021/10/26 05:28:18;;;;;;;30.65;10.20;;;;;;;;;;5029786;28;20025;-67
2021/10/26 05:30:44;;;;;;;26.85;10.77;;;;;;;;;;5038396;28;20065;-67
2021/10/26 05:33:10;;;;;;;29.42;9.73;;;;;;;;;;5030796;28;20021;-67
2021/10/26 05:35:36;;;;;;;31.10;10.35;;;;;;;;;;5029039;28;20033;-67
2021/10/26 05:38:03;;;;;;;28.00;10.27;;;;;;;;;;5028283;28;20449;-67
2021/10/26 05:40:29;;;;;;;31.00;10.25;;;;;;;;;;5030772;28;20071;-67
2021/10/26 05:42:55;;;;;;;22.50;10.30;;;;;;;;;;5030759;28;20076;-67
2021/10/26 05:45:21;;;;;;;36.13;11.10;;;;;;;;;;5025710;28;20684;-67
2021/10/26 05:47:50;;;;;;;27.90;9.93;;;;;;;;;;5027993;28;21050;-67
2021/10/26 05:50:16;;;;;;;31.63;10.52;;;;;;;;;;5030006;28;20120;-67
2021/10/26 05:52:42;;;;;;;31.77;10.38;;;;;;;;;;5029073;28;20045;-67
2021/10/26 05:55:08;;;;;;;27.50;10.07;;;;;;;;;;5029607;28;20025;-67
2021/10/26 05:57:34;;;;;;;30.52;10.18;;;;;;;;;;5029955;28;20561;-67
2021/10/26 06:00:00;;;;;;;21.08;10.07;;;;;;;;;;5028214;28;20562;-67
2021/10/26 06:02:26;;;;;;;28.58;11.00;;;;;;;;;;5029402;28;20028;-67
2021/10/26 06:04:53;;;;;;;25.23;9.95;;;;;;;;;;5029799;28;20521;-66
2021/10/26 06:07:19;;;;;;;30.48;10.82;;;;;;;;;;5024547;28;20502;-67
2021/10/26 06:09:45;;;;;;;38.53;10.48;;;;;;;;;;5026456;28;20059;-67
2021/10/26 06:12:17;;;;;;;29.27;11.32;;;;;;;;;;5026257;28;20053;-67
2021/10/26 06:14:45;;;;;;;32.60;11.02;;;;;;;;;;5028525;28;20549;-67
2021/10/26 06:17:11;;;;;;;29.65;11.50;;;;;;;;;;5025770;28;20117;-67
2021/10/26 06:19:37;;;;;;;30.42;11.38;;;;;;;;;;5033960;28;20481;-67
2021/10/26 06:22:03;;;;;;;28.65;11.23;;;;;;;;;;5028750;28;20027;-67
2021/10/26 06:24:29;;;;;;;25.55;11.20;;;;;;;;;;5033883;28;20389;-67
2021/10/26 06:26:55;;;;;;;33.92;11.68;;;;;;;;;;5028231;28;20026;-67
2021/10/26 06:29:21;;;;;;;22.52;11.35;;;;;;;;;;5028893;28;20033;-67
2021/10/26 06:31:47;;;;;;;22.58;10.18;;;;;;;;;;5032403;28;20025;-67
2021/10/26 06:34:13;;;;;;;28.65;11.20;;;;;;;;;;5034939;28;20021;-67
2021/10/26 06:36:40;;;;;;;25.48;11.07;;;;;;;;;;5040801;28;20029;-67
2021/10/26 06:39:06;;;;;;;22.85;10.45;;;;;;;;;;5026527;28;20025;-67
2021/10/26 06:41:32;;;;;;;24.13;10.10;;;;;;;;;;5029688;28;20100;-66
2021/10/26 06:43:58;;;;;;;27.48;11.40;;;;;;;;;;5028726;28;20057;-67
2021/10/26 06:46:24;;;;;;;23.08;11.63;;;;;;;;;;5025485;28;20041;-67
2021/10/26 06:48:50;;;;;;;23.45;11.00;;;;;;;;;;5027219;28;20049;-67
2021/10/26 06:51:17;;;;;;;29.42;11.88;;;;;;;;;;5030050;28;20030;-67
2021/10/26 06:53:43;;;;;;;30.30;11.65;;;;;;;;;;5026234;28;20029;-67
2021/10/26 06:56:15;;;;;;;32.45;12.30;;;;;;;;;;5029624;28;20049;-67
2021/10/26 06:58:41;;;;;;;38.53;13.30;;;;;;;;;;5070605;22;20054;-70
2021/10/26 07:01:08;;;;;;;39.13;13.88;;;;;;;;;;4999461;28;20034;-70
2021/10/26 07:03:37;;;;;;;40.25;13.70;;;;;;;;;;5006589;28;20054;-69
2021/10/26 07:06:06;;;;;;;33.45;13.18;;;;;;;;;;4991340;28;20046;-70
2021/10/26 07:08:32;;;;;;;31.20;14.23;;;;;;;;;;4990187;28;20639;-71
2021/10/26 07:10:59;;;;;;;41.60;14.85;;;;;;;;;;5005737;28;20628;-70
2021/10/26 07:13:25;;;;;;;31.45;13.90;;;;;;;;;;4990485;28;20109;-70
2021/10/26 07:15:52;;;;;;;33.15;13.55;;;;;;;;;;5005137;28;20026;-70
2021/10/26 07:18:18;;;;;;;35.25;15.13;;;;;;;;;;5006859;28;20101;-71
2021/10/26 07:20:44;;;;;;;34.45;14.05;;;;;;;;;;4984918;28;20026;-70
2021/10/26 07:23:10;;;;;;;33.70;14.70;;;;;;;;;;4993894;28;20035;-70
2021/10/26 07:25:36;;;;;;;33.13;13.75;;;;;;;;;;4994122;28;20105;-71
2021/10/26 07:28:02;;;;;;;29.65;14.23;;;;;;;;;;4993691;28;20030;-71
2021/10/26 07:30:33;;;;;;;37.90;15.88;;;;;;;;;;4999973;28;20068;-71
2021/10/26 07:33:03;;;;;;;33.08;14.80;;;;;;;;;;4994979;28;20034;-70
2021/10/26 07:35:41;;;;;;;36.23;14.57;;;;;;;;;;5001992;28;20076;-70
2021/10/26 07:38:10;;;;;;;31.33;14.20;;;;;;;;;;4992005;28;20027;-70
2021/10/26 07:40:36;;;;;;;35.92;16.52;;;;;;;;;;5013844;28;20053;-70
2021/10/26 07:43:02;;;;;;;35.58;15.40;;;;;;;;;;4996066;28;20022;-70
2021/10/26 07:45:29;;;;;;;36.35;16.70;;;;;;;;;;5010730;28;20046;-70
2021/10/26 07:47:55;;;;;;;40.55;17.33;;;;;;;;;;4993614;28;20389;-70
2021/10/26 07:50:21;;;;;;;37.10;17.20;;;;;;;;;;4998357;28;20607;-70
2021/10/26 07:52:48;;;;;;;41.28;16.98;;;;;;;;;;4995174;28;20027;-70
2021/10/26 07:55:14;;;;;;;38.00;16.65;;;;;;;;;;4998655;28;20104;-70
2021/10/26 07:57:40;;;;;;;38.20;17.35;;;;;;;;;;4998570;28;20025;-70
2021/10/26 08:00:07;;;;;;;53.63;19.30;;;;;;;;;;4992753;28;20045;-71
2021/10/26 08:02:34;;;;;;;38.75;16.98;;;;;;;;;;4992884;28;20027;-70
2021/10/26 08:05:00;;;;;;;41.38;17.23;;;;;;;;;;4993294;28;20023;-70
2021/10/26 08:07:26;;;;;;;46.13;20.15;;;;;;;;;;5001167;28;20557;-70
2021/10/26 08:09:53;;;;;;;39.60;17.40;;;;;;;;;;4994131;28;20045;-70
2021/10/26 08:12:19;;;;;;;45.45;21.50;;;;;;;;;;5001037;28;20018;-70
2021/10/26 08:14:45;;;;;;;33.80;17.17;;;;;;;;;;4997079;28;20034;-70
2021/10/26 08:17:12;;;;;;;52.92;20.50;;;;;;;;;;4993922;28;20072;-70
2021/10/26 08:19:39;;;;;;;34.70;17.45;;;;;;;;;;4993576;28;20374;-70
2021/10/26 08:22:10;;;;;;;40.55;16.88;;;;;;;;;;4989708;28;20065;-71
2021/10/26 08:24:37;;;;;;;44.03;17.70;;;;;;;;;;4998959;28;20033;-71
2021/10/26 08:27:04;;;;;;;34.47;17.17;;;;;;;;;;5013459;28;20092;-70
2021/10/26 08:29:36;;;;;;;36.90;15.40;;;;;;;;;;5007729;28;20416;-70
2021/10/26 08:37:11;;;;;;;27.50;13.13;;;;;;;;;;4985785;28;20400;-71
2021/10/26 08:39:38;;;;;;;29.65;12.48;;;;;;;;;;5016172;28;20023;-70
2021/10/26 08:42:05;;;;;;;36.05;12.35;;;;;;;;;;4992385;28;20077;-70
2021/10/26 08:44:31;;;;;;;33.60;14.18;;;;;;;;;;5001736;28;20403;-70
2021/10/26 08:46:58;;;;;;;37.90;16.42;;;;;;;;;;5007858;28;20030;-70
2021/10/26 08:49:25;;;;;;;38.58;17.58;;;;;;;;;;4999793;28;20026;-70
2021/10/26 08:51:52;;;;;;;40.88;16.83;;;;;;;;;;4997370;28;20026;-70
2021/10/26 08:54:19;;;;;;;44.20;17.95;;;;;;;;;;5002886;28;20046;-70
2021/10/26 08:56:48;;;;;;;43.70;19.80;;;;;;;;;;4998025;28;20480;-71
2021/10/26 08:59:21;;;;;;;40.78;19.10;;;;;;;;;;4996459;28;20050;-71
2021/10/26 09:01:51;;;;;;;45.85;20.48;;;;;;;;;;4996140;28;20058;-70
2021/10/26 09:04:18;;;;;;;37.03;18.45;;;;;;;;;;4995123;28;20037;-70
2021/10/26 09:06:49;;;;;;;41.55;19.05;;;;;;;;;;4993528;28;20034;-70
2021/10/26 09:09:18;;;;;;;42.22;18.92;;;;;;;;;;4988674;28;20277;-70
2021/10/26 09:17:26;;;;;;;36.50;18.23;;;;;;;;;;4990131;28;20042;-70
2021/10/26 09:19:54;;;;;;;38.78;18.60;;;;;;;;;;5001467;28;20448;-70
2021/10/26 09:22:20;;;;;;;50.05;23.50;;;;;;;;;;4996343;28;20036;-70
2021/10/26 09:24:58;;;;;;;36.88;16.70;;;;;;;;;;4999631;28;20395;-70
2021/10/26 09:27:25;;;;;;;39.58;17.13;;;;;;;;;;4988516;28;20030;-69
2021/10/26 09:29:52;;;;;;;37.63;17.67;;;;;;;;;;4990095;28;20034;-70
2021/10/26 09:32:20;;;;;;;40.28;17.77;;;;;;;;;;4991743;28;20443;-71
2021/10/26 09:34:51;;;;;;;37.47;16.90;;;;;;;;;;4991710;28;20022;-70
2021/10/26 09:37:17;;;;;;;36.00;17.67;;;;;;;;;;4991062;28;20467;-70
2021/10/26 09:39:55;;;;;;;33.70;15.02;;;;;;;;;;4986356;28;20113;-70
2021/10/26 09:42:21;;;;;;;36.03;15.50;;;;;;;;;;5004403;28;20026;-69
2021/10/26 09:44:49;;;;;;;42.58;14.75;;;;;;;;;;4988648;28;20185;-70
2021/10/26 09:47:20;;;;;;;40.00;14.63;;;;;;;;;;4990285;28;20084;-70
2021/10/26 09:50:07;;;;;;;34.55;14.70;;;;;;;;;;4985972;28;20034;-70
2021/10/26 09:52:36;;;;;;;33.67;14.07;;;;;;;;;;4990172;28;20443;-70
2021/10/26 09:55:05;;;;;;;36.40;14.00;;;;;;;;;;4989882;28;20030;-70
2021/10/26 09:57:35;;;;;;;33.83;12.02;;;;;;;;;;4988382;28;20520;-70
2021/10/26 10:00:02;;;;;;;33.97;11.45;;;;;;;;;;4985915;28;20046;-71
2021/10/26 10:02:28;;;;;;;27.70;12.20;;;;;;;;;;4989691;28;20216;-70
2021/10/26 10:04:59;;;;;;;32.28;12.65;;;;;;;;;;4989270;28;20041;-69
2021/10/26 10:07:33;;;;;;;23.80;11.93;;;;;;;;;;5000295;28;20034;-70
2021/10/26 10:10:00;;;;;;;34.85;13.50;;;;;;;;;;4986748;28;20075;-70
2021/10/26 10:12:29;;;;;;;25.73;11.82;;;;;;;;;;4989531;28;20042;-70
2021/10/26 10:14:56;;;;;;;27.95;10.77;;;;;;;;;;4990224;28;20026;-70
2021/10/26 10:17:23;;;;;;;36.65;11.50;;;;;;;;;;4991376;28;20109;-70
2021/10/26 10:19:51;;;;;;;25.55;8.98;;;;;;;;;;4987407;28;20084;-70
2021/10/26 10:22:21;;;;;;;30.70;12.07;;;;;;;;;;4991309;28;20102;-70
2021/10/26 10:24:49;;;;;;;23.42;8.57;;;;;;;;;;5005541;28;20516;-70
2021/10/26 10:27:18;;;;;;;23.23;9.82;;;;;;;;;;4988578;28;20022;-71
2021/10/26 10:29:45;;;;;;;25.42;10.57;;;;;;;;;;4986686;28;20065;-70
2021/10/26 10:32:11;;;;;;;26.65;10.73;;;;;;;;;;4988949;28;20030;-69
2021/10/26 10:34:38;;;;;;;21.60;10.65;;;;;;;;;;4989468;28;20034;-69
2021/10/26 10:37:04;;;;;;;22.27;9.98;;;;;;;;;;4989912;28;20117;-74
2021/10/26 10:39:34;;;;;;;26.70;10.55;;;;;;;;;;4989884;28;20038;-70
2021/10/26 10:42:14;;;;;;;23.45;9.48;;;;;;;;;;4989609;28;20512;-70
2021/10/26 10:44:41;;;;;;;21.90;8.85;;;;;;;;;;4989373;28;20045;-71
2021/10/26 10:47:11;;;;;;;25.13;8.85;;;;;;;;;;5003341;28;20034;-70
2021/10/26 10:49:37;;;;;;;16.27;6.85;;;;;;;;;;4985585;28;20461;-70
2021/10/26 10:52:05;;;;;;;26.02;7.70;;;;;;;;;;5004889;28;20110;-71
2021/10/26 10:54:48;;;;;;;18.58;5.80;;;;;;;;;;4993521;28;20037;-71
2021/10/26 10:57:19;;;;;;;15.18;4.25;;;;;;;;;;4988438;28;20029;-72
2021/10/26 10:59:46;;;;;;;13.55;3.47;;;;;;;;;;5006975;28;20236;-71
2021/10/26 11:02:33;;;;;;;13.55;2.63;;;;;;;;;;4997102;28;20033;-71
2021/10/26 11:05:00;;;;;;;16.42;2.72;;;;;;;;;;5017178;28;20062;-71
2021/10/26 11:07:44;;;;;;;11.35;3.22;;;;;;;;;;4996350;28;20033;-73
2021/10/26 11:10:11;;;;;;;10.85;2.35;;;;;;;;;;4993802;28;20108;-70
2021/10/26 11:12:38;;;;;;;15.38;2.60;;;;;;;;;;5014328;28;20033;-71
2021/10/26 11:15:11;;;;;;;12.57;2.95;;;;;;;;;;4994664;28;20547;-71
2021/10/26 11:17:42;;;;;;;14.80;3.20;;;;;;;;;;4996916;28;20030;-71
2021/10/26 11:20:09;;;;;;;14.13;2.93;;;;;;;;;;4998127;28;20018;-78
2021/10/26 11:22:52;;;;;;;8.95;2.53;;;;;;;;;;5011483;28;20049;-71
2021/10/26 11:25:18;;;;;;;11.07;2.92;;;;;;;;;;4995964;28;20030;-72
2021/10/26 11:27:45;;;;;;;12.00;3.72;;;;;;;;;;5010244;28;20030;-72
2021/10/26 11:30:29;;;;;;;8.85;3.00;;;;;;;;;;5009494;28;20026;-71
2021/10/26 11:33:14;;;;;;;12.30;2.85;;;;;;;;;;5004402;28;20073;-73
2021/10/26 11:36:07;;;;;;;14.52;3.33;;;;;;;;;;5010664;28;20030;-71
2021/10/26 11:38:43;;;;;;;13.45;2.80;;;;;;;;;;5006488;28;20489;-73
2021/10/26 11:41:14;;;;;;;9.95;2.45;;;;;;;;;;5000231;28;20026;-71
2021/10/26 11:43:53;;;;;;;12.77;2.40;;;;;;;;;;5006638;28;20021;-72
2021/10/26 11:46:24;;;;;;;12.68;2.95;;;;;;;;;;4991591;28;20041;-71
2021/10/26 11:48:51;;;;;;;15.32;2.33;;;;;;;;;;4990592;28;20477;-73
2021/10/26 11:51:25;;;;;;;15.02;2.83;;;;;;;;;;4995087;28;20113;-72
2021/10/26 11:54:01;;;;;;;15.90;2.80;;;;;;;;;;5009064;28;20041;-72
2021/10/26 11:56:37;;;;;;;10.63;2.10;;;;;;;;;;5010815;28;20034;-73
2021/10/26 11:59:03;;;;;;;9.70;1.90;;;;;;;;;;4993650;28;20042;-72
2021/10/26 12:01:37;;;;;;;10.80;2.20;;;;;;;;;;5010074;28;20516;-76
2021/10/26 12:04:06;;;;;;;12.60;2.38;;;;;;;;;;4991257;28;20090;-74
2021/10/26 12:06:33;;;;;;;12.65;2.83;;;;;;;;;;4996328;28;20435;-73
2021/10/26 12:09:00;;;;;;;12.40;3.00;;;;;;;;;;4993676;28;20496;-73
2021/10/26 12:11:27;;;;;;;13.27;3.42;;;;;;;;;;5000914;28;20034;-71
2021/10/26 12:14:12;;;;;;;16.60;2.38;;;;;;;;;;4992534;28;20053;-72
2021/10/26 12:16:38;;;;;;;15.77;2.78;;;;;;;;;;5007894;28;20053;-72
2021/10/26 12:19:04;;;;;;;14.43;3.17;;;;;;;;;;4990872;28;20018;-73
2021/10/26 12:21:30;;;;;;;14.23;2.42;;;;;;;;;;4992438;28;20053;-73
2021/10/26 12:23:57;;;;;;;9.15;2.08;;;;;;;;;;4991192;28;20060;-74
2021/10/26 12:26:23;;;;;;;16.70;2.55;;;;;;;;;;4982589;28;20634;-71
2021/10/26 12:28:55;;;;;;;14.88;2.20;;;;;;;;;;4987391;28;20026;-73
2021/10/26 12:31:24;;;;;;;16.73;2.85;;;;;;;;;;4987625;28;20109;-72
2021/10/26 12:34:00;;;;;;;16.33;2.60;;;;;;;;;;4993116;28;20129;-73
2021/10/26 12:36:26;;;;;;;15.30;2.20;;;;;;;;;;5001486;28;20147;-73
2021/10/26 12:39:01;;;;;;;19.30;2.47;;;;;;;;;;5003449;28;20030;-74
2021/10/26 12:41:36;;;;;;;15.48;3.95;;;;;;;;;;4992341;28;20030;-74
2021/10/26 12:44:04;;;;;;;14.13;1.98;;;;;;;;;;5006924;28;20524;-71
2021/10/26 12:46:30;;;;;;;11.95;2.53;;;;;;;;;;4993005;28;20385;-72
2021/10/26 12:49:06;;;;;;;18.15;2.85;;;;;;;;;;4990192;28;20062;-71
2021/10/26 12:51:32;;;;;;;8.70;1.75;;;;;;;;;;4988113;28;20532;-73
2021/10/26 12:54:10;;;;;;;15.68;2.60;;;;;;;;;;4992553;28;20092;-72
2021/10/26 12:56:44;;;;;;;10.20;2.13;;;;;;;;;;5006277;28;20117;-72
2021/10/26 12:59:10;;;;;;;12.27;1.85;;;;;;;;;;5003872;28;20152;-75
2021/10/26 13:01:37;;;;;;;10.05;2.17;;;;;;;;;;4991563;28;20026;-72
2021/10/26 13:04:05;;;;;;;13.48;2.00;;;;;;;;;;4987338;28;20023;-72
2021/10/26 13:06:57;;;;;;;16.33;2.38;;;;;;;;;;4992625;28;20034;-73
2021/10/26 13:10:04;;;;;;;11.07;2.33;;;;;;;;;;4975419;28;20416;-72
2021/10/26 13:12:30;;;;;;;11.48;1.70;;;;;;;;;;4988383;28;20026;-74
2021/10/26 13:15:04;;;;;;;11.65;2.53;;;;;;;;;;4991146;28;20118;-72
2021/10/26 13:17:38;;;;;;;14.70;2.45;;;;;;;;;;4991297;28;20030;-71
2021/10/26 13:20:33;;;;;;;13.57;1.98;;;;;;;;;;5005730;28;20014;-72
2021/10/26 13:23:02;;;;;;;9.93;2.22;;;;;;;;;;4991060;28;20061;-72
2021/10/26 13:25:35;;;;;;;10.55;3.47;;;;;;;;;;5006198;28;20138;-71
2021/10/26 13:28:04;;;;;;;8.73;1.95;;;;;;;;;;4991872;28;20802;-72
2021/10/26 13:30:31;;;;;;;18.83;2.78;;;;;;;;;;5009963;28;20479;-73
2021/10/26 13:33:03;;;;;;;18.33;3.25;;;;;;;;;;4993526;28;20434;-71
2021/10/26 13:35:29;;;;;;;14.23;2.80;;;;;;;;;;4990217;28;20018;-71
2021/10/26 13:37:55;;;;;;;12.57;2.17;;;;;;;;;;4992246;28;20030;-71
2021/10/26 13:40:21;;;;;;;13.32;2.25;;;;;;;;;;4991809;28;20029;-70
2021/10/26 13:42:48;;;;;;;12.75;2.47;;;;;;;;;;5005405;28;20081;-70
2021/10/26 13:45:14;;;;;;;17.42;2.47;;;;;;;;;;5004003;28;20027;-71
2021/10/26 13:47:44;;;;;;;11.80;2.63;;;;;;;;;;5005970;28;20030;-71
2021/10/26 13:50:10;;;;;;;15.38;2.05;;;;;;;;;;4983905;28;20432;-70
2021/10/26 13:52:37;;;;;;;15.48;2.25;;;;;;;;;;4999853;28;20035;-71
2021/10/26 13:55:04;;;;;;;15.05;2.65;;;;;;;;;;4997355;28;20026;-75
2021/10/26 13:57:30;;;;;;;12.13;2.25;;;;;;;;;;5000495;28;20567;-72
2021/10/26 13:59:57;;;;;;;10.35;2.33;;;;;;;;;;4995051;28;20054;-72
2021/10/26 14:02:23;;;;;;;16.80;2.83;;;;;;;;;;4991559;28;20014;-71
2021/10/26 14:04:49;;;;;;;9.30;2.25;;;;;;;;;;4992645;28;20574;-71
2021/10/26 14:07:15;;;;;;;11.52;2.60;;;;;;;;;;4993048;28;20106;-71
2021/10/26 14:09:42;;;;;;;11.77;2.30;;;;;;;;;;4988330;28;20038;-71
2021/10/26 14:12:08;;;;;;;15.55;3.40;;;;;;;;;;4995572;28;20029;-71
2021/10/26 14:14:34;;;;;;;12.35;2.72;;;;;;;;;;4995563;28;20500;-71
2021/10/26 14:17:00;;;;;;;10.32;2.30;;;;;;;;;;4988884;28;20484;-71
2021/10/26 14:19:26;;;;;;;10.63;2.35;;;;;;;;;;5003319;28;20507;-71
2021/10/26 14:21:52;;;;;;;10.95;2.13;;;;;;;;;;4989649;28;20491;-72
2021/10/26 14:24:20;;;;;;;17.90;3.63;;;;;;;;;;4989072;28;20493;-71
2021/10/26 14:26:46;;;;;;;11.52;2.10;;;;;;;;;;4987377;28;20026;-72
2021/10/26 14:29:13;;;;;;;23.63;3.97;;;;;;;;;;4990476;28;20027;-71
2021/10/26 14:31:39;;;;;;;12.27;2.38;;;;;;;;;;4991115;28;20034;-72
2021/10/26 14:34:06;;;;;;;14.23;2.35;;;;;;;;;;4990473;28;20038;-71
2021/10/26 14:39:19;;;;;;;19.50;3.60;;;;;;;;;;4996883;28;20027;-71
2021/10/26 14:42:00;;;;;;;16.13;4.07;;;;;;;;;;5004684;28;20038;-71